sensor_id;sensor_type;location;lat;lon;timestamp;P1;durP1;ratioP1;P2;durP2;ratioP2
30301;SDS011;17111;52.130;5.028;2023-03-31T00:02:11;13.10;;;3.70;;
30301;SDS011;17111;52.130;5.028;2023-03-31T00:04:42;10.02;;;3.70;;
30301;SDS011;17111;52.130;5.028;2023-03-31T00:07:12;12.93;;;3.60;;
30301;SDS011;17111;52.130;5.028;2023-03-31T00:09:39;11.00;;;4.18;;
30301;SDS011;17111;52.130;5.028;2023-03-31T00:12:14;8.80;;;3.90;;
30301;SDS011;17111;52.130;5.028;2023-03-31T00:14:42;11.65;;;3.35;;
30301;SDS011;17111;52.130;5.028;2023-03-31T00:17:09;9.20;;;3.40;;
30301;SDS011;17111;52.130;5.028;2023-03-31T00:19:36;14.27;;;3.75;;
30301;SDS011;17111;52.130;5.028;2023-03-31T00:22:05;11.52;;;3.30;;
30301;SDS011;17111;52.130;5.028;2023-03-31T00:24:32;13.43;;;3.70;;
30301;SDS011;17111;52.130;5.028;2023-03-31T00:27:02;11.65;;;3.10;;
30301;SDS011;17111;52.130;5.028;2023-03-31T00:29:29;8.95;;;3.50;;
30301;SDS011;17111;52.130;5.028;2023-03-31T00:31:58;8.95;;;3.05;;
30301;SDS011;17111;52.130;5.028;2023-03-31T00:34:25;12.20;;;3.80;;
30301;SDS011;17111;52.130;5.028;2023-03-31T00:36:53;11.43;;;3.65;;
30301;SDS011;17111;52.130;5.028;2023-03-31T00:39:22;10.30;;;3.53;;
30301;SDS011;17111;52.130;5.028;2023-03-31T00:41:53;13.52;;;3.13;;
30301;SDS011;17111;52.130;5.028;2023-03-31T00:44:23;10.23;;;3.28;;
30301;SDS011;17111;52.130;5.028;2023-03-31T00:46:58;8.55;;;2.88;;
30301;SDS011;17111;52.130;5.028;2023-03-31T00:49:44;12.07;;;3.28;;
30301;SDS011;17111;52.130;5.028;2023-03-31T00:54:50;9.10;;;3.70;;
30301;SDS011;17111;52.130;5.028;2023-03-31T00:57:21;7.30;;;3.13;;
30301;SDS011;17111;52.130;5.028;2023-03-31T00:59:50;9.50;;;2.42;;
30301;SDS011;17111;52.130;5.028;2023-03-31T01:02:21;7.18;;;2.70;;
30301;SDS011;17111;52.130;5.028;2023-03-31T01:04:54;8.18;;;2.55;;
30301;SDS011;17111;52.130;5.028;2023-03-31T01:07:28;7.70;;;2.58;;
30301;SDS011;17111;52.130;5.028;2023-03-31T01:10:03;9.75;;;3.28;;
30301;SDS011;17111;52.130;5.028;2023-03-31T01:12:30;7.57;;;3.05;;
30301;SDS011;17111;52.130;5.028;2023-03-31T01:14:59;11.88;;;3.20;;
30301;SDS011;17111;52.130;5.028;2023-03-31T01:17:29;9.43;;;2.70;;
30301;SDS011;17111;52.130;5.028;2023-03-31T01:20:01;8.90;;;2.88;;
30301;SDS011;17111;52.130;5.028;2023-03-31T01:36:36;6.72;;;2.35;;
30301;SDS011;17111;52.130;5.028;2023-03-31T01:45:16;7.25;;;2.33;;
30301;SDS011;17111;52.130;5.028;2023-03-31T01:50:27;5.85;;;2.20;;
30301;SDS011;17111;52.130;5.028;2023-03-31T01:53:34;6.28;;;2.10;;
30301;SDS011;17111;52.130;5.028;2023-03-31T01:56:18;6.53;;;2.45;;
30301;SDS011;17111;52.130;5.028;2023-03-31T01:58:58;3.63;;;1.63;;
30301;SDS011;17111;52.130;5.028;2023-03-31T02:04:32;5.75;;;2.13;;
30301;SDS011;17111;52.130;5.028;2023-03-31T02:10:00;4.47;;;1.73;;
30301;SDS011;17111;52.130;5.028;2023-03-31T02:12:30;6.53;;;2.25;;
30301;SDS011;17111;52.130;5.028;2023-03-31T02:14:58;4.93;;;2.13;;
30301;SDS011;17111;52.130;5.028;2023-03-31T02:17:28;9.88;;;2.75;;
30301;SDS011;17111;52.130;5.028;2023-03-31T02:19:56;8.45;;;2.30;;
30301;SDS011;17111;52.130;5.028;2023-03-31T02:22:32;6.50;;;2.67;;
30301;SDS011;17111;52.130;5.028;2023-03-31T02:25:02;5.60;;;2.13;;
30301;SDS011;17111;52.130;5.028;2023-03-31T02:27:35;11.27;;;2.90;;
30301;SDS011;17111;52.130;5.028;2023-03-31T02:30:07;10.10;;;2.65;;
30301;SDS011;17111;52.130;5.028;2023-03-31T02:32:37;8.13;;;2.05;;
30301;SDS011;17111;52.130;5.028;2023-03-31T02:35:06;4.03;;;1.83;;
30301;SDS011;17111;52.130;5.028;2023-03-31T02:37:38;8.23;;;2.03;;
30301;SDS011;17111;52.130;5.028;2023-03-31T02:40:06;6.95;;;2.72;;
30301;SDS011;17111;52.130;5.028;2023-03-31T02:42:37;5.55;;;2.60;;
30301;SDS011;17111;52.130;5.028;2023-03-31T02:45:06;7.90;;;2.60;;
30301;SDS011;17111;52.130;5.028;2023-03-31T02:47:52;8.13;;;2.42;;
30301;SDS011;17111;52.130;5.028;2023-03-31T02:50:20;6.85;;;2.38;;
30301;SDS011;17111;52.130;5.028;2023-03-31T02:53:02;4.15;;;2.10;;
30301;SDS011;17111;52.130;5.028;2023-03-31T03:06:44;5.88;;;1.88;;
30301;SDS011;17111;52.130;5.028;2023-03-31T03:09:27;6.28;;;2.17;;
30301;SDS011;17111;52.130;5.028;2023-03-31T03:14:54;7.53;;;2.30;;
30301;SDS011;17111;52.130;5.028;2023-03-31T03:17:27;5.00;;;1.88;;
30301;SDS011;17111;52.130;5.028;2023-03-31T03:20:03;5.53;;;2.10;;
30301;SDS011;17111;52.130;5.028;2023-03-31T03:22:35;6.25;;;1.90;;
30301;SDS011;17111;52.130;5.028;2023-03-31T03:25:03;5.00;;;2.33;;
30301;SDS011;17111;52.130;5.028;2023-03-31T03:27:30;6.45;;;1.98;;
30301;SDS011;17111;52.130;5.028;2023-03-31T03:29:57;4.15;;;1.85;;
30301;SDS011;17111;52.130;5.028;2023-03-31T03:32:24;6.13;;;1.50;;
30301;SDS011;17111;52.130;5.028;2023-03-31T03:34:51;5.38;;;1.85;;
30301;SDS011;17111;52.130;5.028;2023-03-31T03:37:17;5.95;;;2.20;;
30301;SDS011;17111;52.130;5.028;2023-03-31T03:39:44;4.03;;;1.70;;
30301;SDS011;17111;52.130;5.028;2023-03-31T03:42:11;4.78;;;1.50;;
30301;SDS011;17111;52.130;5.028;2023-03-31T03:44:37;5.78;;;1.65;;
30301;SDS011;17111;52.130;5.028;2023-03-31T03:47:04;6.57;;;1.80;;
30301;SDS011;17111;52.130;5.028;2023-03-31T03:49:30;6.10;;;1.73;;
30301;SDS011;17111;52.130;5.028;2023-03-31T03:51:57;7.65;;;2.08;;
30301;SDS011;17111;52.130;5.028;2023-03-31T03:54:23;5.68;;;1.60;;
30301;SDS011;17111;52.130;5.028;2023-03-31T03:56:50;6.53;;;1.67;;
30301;SDS011;17111;52.130;5.028;2023-03-31T03:59:16;6.03;;;1.80;;
30301;SDS011;17111;52.130;5.028;2023-03-31T04:01:43;5.60;;;1.83;;
30301;SDS011;17111;52.130;5.028;2023-03-31T04:04:10;6.80;;;1.50;;
30301;SDS011;17111;52.130;5.028;2023-03-31T04:06:36;6.90;;;1.85;;
30301;SDS011;17111;52.130;5.028;2023-03-31T04:09:03;6.70;;;1.65;;
30301;SDS011;17111;52.130;5.028;2023-03-31T04:11:30;4.57;;;1.88;;
30301;SDS011;17111;52.130;5.028;2023-03-31T04:13:57;6.40;;;1.80;;
30301;SDS011;17111;52.130;5.028;2023-03-31T04:16:24;3.97;;;1.40;;
30301;SDS011;17111;52.130;5.028;2023-03-31T04:18:51;6.20;;;1.50;;
30301;SDS011;17111;52.130;5.028;2023-03-31T04:21:21;4.03;;;1.60;;
30301;SDS011;17111;52.130;5.028;2023-03-31T04:23:49;6.20;;;1.80;;
30301;SDS011;17111;52.130;5.028;2023-03-31T04:26:24;7.35;;;1.92;;
30301;SDS011;17111;52.130;5.028;2023-03-31T04:28:56;4.67;;;1.40;;
30301;SDS011;17111;52.130;5.028;2023-03-31T04:31:26;4.05;;;1.30;;
30301;SDS011;17111;52.130;5.028;2023-03-31T04:33:56;6.45;;;1.70;;
30301;SDS011;17111;52.130;5.028;2023-03-31T04:36:28;3.95;;;1.27;;
30301;SDS011;17111;52.130;5.028;2023-03-31T04:38:56;5.40;;;1.50;;
30301;SDS011;17111;52.130;5.028;2023-03-31T04:41:23;5.03;;;1.90;;
30301;SDS011;17111;52.130;5.028;2023-03-31T04:43:52;4.25;;;1.20;;
30301;SDS011;17111;52.130;5.028;2023-03-31T04:46:19;4.68;;;1.58;;
30301;SDS011;17111;52.130;5.028;2023-03-31T04:48:47;7.10;;;1.63;;
30301;SDS011;17111;52.130;5.028;2023-03-31T04:51:13;4.10;;;1.50;;
30301;SDS011;17111;52.130;5.028;2023-03-31T04:53:41;4.15;;;1.83;;
30301;SDS011;17111;52.130;5.028;2023-03-31T04:56:08;3.78;;;1.35;;
30301;SDS011;17111;52.130;5.028;2023-03-31T04:58:34;5.90;;;1.90;;
30301;SDS011;17111;52.130;5.028;2023-03-31T05:01:01;5.63;;;1.48;;
30301;SDS011;17111;52.130;5.028;2023-03-31T05:03:27;5.55;;;1.70;;
30301;SDS011;17111;52.130;5.028;2023-03-31T05:05:54;4.18;;;1.65;;
30301;SDS011;17111;52.130;5.028;2023-03-31T05:08:21;6.10;;;1.50;;
30301;SDS011;17111;52.130;5.028;2023-03-31T05:10:47;4.43;;;1.80;;
30301;SDS011;17111;52.130;5.028;2023-03-31T05:13:14;4.68;;;1.45;;
30301;SDS011;17111;52.130;5.028;2023-03-31T05:15:41;8.55;;;2.08;;
30301;SDS011;17111;52.130;5.028;2023-03-31T05:18:10;4.63;;;1.55;;
30301;SDS011;17111;52.130;5.028;2023-03-31T05:20:37;5.10;;;1.38;;
30301;SDS011;17111;52.130;5.028;2023-03-31T05:23:04;5.70;;;1.38;;
30301;SDS011;17111;52.130;5.028;2023-03-31T05:25:30;4.53;;;1.70;;
30301;SDS011;17111;52.130;5.028;2023-03-31T05:27:58;5.43;;;1.65;;
30301;SDS011;17111;52.130;5.028;2023-03-31T05:30:26;5.45;;;1.95;;
30301;SDS011;17111;52.130;5.028;2023-03-31T05:32:54;4.97;;;1.35;;
30301;SDS011;17111;52.130;5.028;2023-03-31T05:35:21;6.15;;;1.50;;
30301;SDS011;17111;52.130;5.028;2023-03-31T05:37:48;4.93;;;1.88;;
30301;SDS011;17111;52.130;5.028;2023-03-31T05:40:15;7.07;;;2.42;;
30301;SDS011;17111;52.130;5.028;2023-03-31T05:42:41;8.80;;;1.77;;
30301;SDS011;17111;52.130;5.028;2023-03-31T05:45:08;4.57;;;1.50;;
30301;SDS011;17111;52.130;5.028;2023-03-31T05:47:35;7.10;;;2.03;;
30301;SDS011;17111;52.130;5.028;2023-03-31T05:50:02;4.43;;;1.75;;
30301;SDS011;17111;52.130;5.028;2023-03-31T05:52:32;3.55;;;1.48;;
30301;SDS011;17111;52.130;5.028;2023-03-31T05:54:59;6.80;;;1.77;;
30301;SDS011;17111;52.130;5.028;2023-03-31T05:57:26;3.97;;;1.80;;
30301;SDS011;17111;52.130;5.028;2023-03-31T05:59:52;6.13;;;1.80;;
30301;SDS011;17111;52.130;5.028;2023-03-31T06:02:19;4.80;;;1.80;;
30301;SDS011;17111;52.130;5.028;2023-03-31T06:04:46;4.00;;;1.30;;
30301;SDS011;17111;52.130;5.028;2023-03-31T06:07:12;4.00;;;1.45;;
30301;SDS011;17111;52.130;5.028;2023-03-31T06:09:40;4.97;;;1.67;;
30301;SDS011;17111;52.130;5.028;2023-03-31T06:12:06;5.90;;;1.75;;
30301;SDS011;17111;52.130;5.028;2023-03-31T06:14:33;4.88;;;1.50;;
30301;SDS011;17111;52.130;5.028;2023-03-31T06:17:00;3.80;;;1.80;;
30301;SDS011;17111;52.130;5.028;2023-03-31T06:19:26;3.63;;;1.40;;
30301;SDS011;17111;52.130;5.028;2023-03-31T06:21:53;4.03;;;1.42;;
30301;SDS011;17111;52.130;5.028;2023-03-31T06:24:20;5.15;;;1.85;;
30301;SDS011;17111;52.130;5.028;2023-03-31T06:26:47;5.40;;;1.50;;
30301;SDS011;17111;52.130;5.028;2023-03-31T06:29:13;4.32;;;1.08;;
30301;SDS011;17111;52.130;5.028;2023-03-31T06:31:40;3.17;;;1.63;;
30301;SDS011;17111;52.130;5.028;2023-03-31T06:34:06;2.65;;;1.10;;
30301;SDS011;17111;52.130;5.028;2023-03-31T06:36:33;4.15;;;1.60;;
30301;SDS011;17111;52.130;5.028;2023-03-31T06:38:59;4.53;;;1.40;;
30301;SDS011;17111;52.130;5.028;2023-03-31T06:41:26;4.35;;;1.60;;
30301;SDS011;17111;52.130;5.028;2023-03-31T06:43:53;4.47;;;1.40;;
30301;SDS011;17111;52.130;5.028;2023-03-31T06:46:20;4.35;;;1.50;;
30301;SDS011;17111;52.130;5.028;2023-03-31T06:48:46;4.18;;;1.90;;
30301;SDS011;17111;52.130;5.028;2023-03-31T06:51:13;5.35;;;1.83;;
30301;SDS011;17111;52.130;5.028;2023-03-31T06:53:40;4.80;;;1.70;;
30301;SDS011;17111;52.130;5.028;2023-03-31T06:56:06;3.63;;;1.40;;
30301;SDS011;17111;52.130;5.028;2023-03-31T06:58:33;3.22;;;1.25;;
30301;SDS011;17111;52.130;5.028;2023-03-31T07:01:01;3.00;;;1.40;;
30301;SDS011;17111;52.130;5.028;2023-03-31T07:03:29;4.43;;;1.60;;
30301;SDS011;17111;52.130;5.028;2023-03-31T07:05:56;2.72;;;1.40;;
30301;SDS011;17111;52.130;5.028;2023-03-31T07:08:23;4.88;;;1.40;;
30301;SDS011;17111;52.130;5.028;2023-03-31T07:10:56;4.28;;;1.30;;
30301;SDS011;17111;52.130;5.028;2023-03-31T07:13:25;3.83;;;1.20;;
30301;SDS011;17111;52.130;5.028;2023-03-31T07:15:52;5.13;;;1.38;;
30301;SDS011;17111;52.130;5.028;2023-03-31T07:18:19;3.25;;;1.38;;
30301;SDS011;17111;52.130;5.028;2023-03-31T07:20:47;4.88;;;1.40;;
30301;SDS011;17111;52.130;5.028;2023-03-31T07:23:15;2.70;;;1.45;;
30301;SDS011;17111;52.130;5.028;2023-03-31T07:25:42;3.45;;;1.10;;
30301;SDS011;17111;52.130;5.028;2023-03-31T07:28:09;3.50;;;1.10;;
30301;SDS011;17111;52.130;5.028;2023-03-31T07:30:36;3.53;;;1.38;;
30301;SDS011;17111;52.130;5.028;2023-03-31T07:33:04;2.97;;;1.20;;
30301;SDS011;17111;52.130;5.028;2023-03-31T07:35:30;3.45;;;1.48;;
30301;SDS011;17111;52.130;5.028;2023-03-31T07:37:57;3.72;;;1.17;;
30301;SDS011;17111;52.130;5.028;2023-03-31T07:40:25;3.22;;;1.00;;
30301;SDS011;17111;52.130;5.028;2023-03-31T07:42:53;3.40;;;1.30;;
30301;SDS011;17111;52.130;5.028;2023-03-31T07:45:21;3.22;;;1.10;;
30301;SDS011;17111;52.130;5.028;2023-03-31T07:47:50;4.38;;;1.80;;
30301;SDS011;17111;52.130;5.028;2023-03-31T07:50:17;6.20;;;1.48;;
30301;SDS011;17111;52.130;5.028;2023-03-31T07:52:44;3.10;;;1.33;;
30301;SDS011;17111;52.130;5.028;2023-03-31T07:55:12;4.03;;;1.45;;
30301;SDS011;17111;52.130;5.028;2023-03-31T07:57:39;3.35;;;1.20;;
30301;SDS011;17111;52.130;5.028;2023-03-31T08:00:06;4.80;;;1.40;;
30301;SDS011;17111;52.130;5.028;2023-03-31T08:02:37;1.95;;;1.10;;
30301;SDS011;17111;52.130;5.028;2023-03-31T08:05:05;2.90;;;1.10;;
30301;SDS011;17111;52.130;5.028;2023-03-31T08:07:33;3.55;;;1.35;;
30301;SDS011;17111;52.130;5.028;2023-03-31T08:10:02;3.47;;;1.10;;
30301;SDS011;17111;52.130;5.028;2023-03-31T08:12:30;4.60;;;1.48;;
30301;SDS011;17111;52.130;5.028;2023-03-31T08:14:57;3.78;;;1.40;;
30301;SDS011;17111;52.130;5.028;2023-03-31T08:17:24;5.47;;;1.67;;
30301;SDS011;17111;52.130;5.028;2023-03-31T08:19:50;3.40;;;1.30;;
30301;SDS011;17111;52.130;5.028;2023-03-31T08:22:17;3.63;;;1.02;;
30301;SDS011;17111;52.130;5.028;2023-03-31T08:24:44;3.55;;;1.30;;
30301;SDS011;17111;52.130;5.028;2023-03-31T08:27:10;4.60;;;1.20;;
30301;SDS011;17111;52.130;5.028;2023-03-31T08:29:37;3.75;;;1.20;;
30301;SDS011;17111;52.130;5.028;2023-03-31T08:32:04;2.72;;;1.00;;
30301;SDS011;17111;52.130;5.028;2023-03-31T08:34:32;3.15;;;1.30;;
30301;SDS011;17111;52.130;5.028;2023-03-31T08:36:59;3.42;;;1.38;;
30301;SDS011;17111;52.130;5.028;2023-03-31T08:39:25;6.10;;;1.30;;
30301;SDS011;17111;52.130;5.028;2023-03-31T08:44:45;4.72;;;1.70;;
30301;SDS011;17111;52.130;5.028;2023-03-31T08:47:23;3.58;;;1.40;;
30301;SDS011;17111;52.130;5.028;2023-03-31T08:49:54;6.03;;;1.92;;
30301;SDS011;17111;52.130;5.028;2023-03-31T08:52:33;4.40;;;1.40;;
30301;SDS011;17111;52.130;5.028;2023-03-31T08:55:06;4.38;;;1.33;;
30301;SDS011;17111;52.130;5.028;2023-03-31T08:57:51;6.32;;;1.50;;
30301;SDS011;17111;52.130;5.028;2023-03-31T09:00:50;4.55;;;1.60;;
30301;SDS011;17111;52.130;5.028;2023-03-31T09:03:41;3.97;;;1.50;;
30301;SDS011;17111;52.130;5.028;2023-03-31T09:06:18;5.13;;;1.65;;
30301;SDS011;17111;52.130;5.028;2023-03-31T09:08:49;3.33;;;1.38;;
30301;SDS011;17111;52.130;5.028;2023-03-31T09:11:27;5.15;;;1.35;;
30301;SDS011;17111;52.130;5.028;2023-03-31T09:19:53;5.38;;;1.35;;
30301;SDS011;17111;52.130;5.028;2023-03-31T09:22:30;4.43;;;1.40;;
30301;SDS011;17111;52.130;5.028;2023-03-31T09:27:35;6.15;;;1.70;;
30301;SDS011;17111;52.130;5.028;2023-03-31T09:30:12;3.72;;;1.77;;
30301;SDS011;17111;52.130;5.028;2023-03-31T09:32:40;4.75;;;1.90;;
30301;SDS011;17111;52.130;5.028;2023-03-31T09:35:21;9.10;;;2.10;;
30301;SDS011;17111;52.130;5.028;2023-03-31T09:37:53;5.55;;;1.55;;
30301;SDS011;17111;52.130;5.028;2023-03-31T09:40:21;8.43;;;2.25;;
30301;SDS011;17111;52.130;5.028;2023-03-31T09:43:13;8.32;;;1.73;;
30301;SDS011;17111;52.130;5.028;2023-03-31T09:45:53;9.50;;;1.95;;
30301;SDS011;17111;52.130;5.028;2023-03-31T09:48:33;10.57;;;2.58;;
30301;SDS011;17111;52.130;5.028;2023-03-31T09:51:02;6.15;;;1.80;;
30301;SDS011;17111;52.130;5.028;2023-03-31T09:59:51;8.60;;;2.40;;
30301;SDS011;17111;52.130;5.028;2023-03-31T10:02:00;6.65;;;2.40;;
30301;SDS011;17111;52.130;5.028;2023-03-31T10:04:31;6.13;;;1.67;;
30301;SDS011;17111;52.130;5.028;2023-03-31T10:07:00;9.20;;;2.60;;
30301;SDS011;17111;52.130;5.028;2023-03-31T10:09:30;8.38;;;2.10;;
30301;SDS011;17111;52.130;5.028;2023-03-31T10:12:01;11.98;;;2.30;;
30301;SDS011;17111;52.130;5.028;2023-03-31T10:14:32;8.35;;;2.20;;
30301;SDS011;17111;52.130;5.028;2023-03-31T10:17:10;11.75;;;3.75;;
30301;SDS011;17111;52.130;5.028;2023-03-31T10:19:46;10.45;;;2.72;;
30301;SDS011;17111;52.130;5.028;2023-03-31T10:22:15;7.28;;;2.40;;
30301;SDS011;17111;52.130;5.028;2023-03-31T10:24:45;10.60;;;2.53;;
30301;SDS011;17111;52.130;5.028;2023-03-31T10:29:45;10.18;;;2.25;;
30301;SDS011;17111;52.130;5.028;2023-03-31T10:32:17;8.00;;;2.40;;
30301;SDS011;17111;52.130;5.028;2023-03-31T10:34:55;10.65;;;2.70;;
30301;SDS011;17111;52.130;5.028;2023-03-31T10:37:23;7.53;;;2.10;;
30301;SDS011;17111;52.130;5.028;2023-03-31T10:39:59;8.00;;;2.78;;
30301;SDS011;17111;52.130;5.028;2023-03-31T10:42:32;8.57;;;2.45;;
30301;SDS011;17111;52.130;5.028;2023-03-31T10:48:04;6.38;;;2.20;;
30301;SDS011;17111;52.130;5.028;2023-03-31T10:50:42;9.57;;;2.40;;
30301;SDS011;17111;52.130;5.028;2023-03-31T10:53:11;7.00;;;2.30;;
30301;SDS011;17111;52.130;5.028;2023-03-31T11:01:52;10.63;;;2.40;;
30301;SDS011;17111;52.130;5.028;2023-03-31T11:07:37;10.73;;;2.53;;
30301;SDS011;17111;52.130;5.028;2023-03-31T11:12:44;8.70;;;2.33;;
30301;SDS011;17111;52.130;5.028;2023-03-31T11:15:24;11.70;;;2.20;;
30301;SDS011;17111;52.130;5.028;2023-03-31T11:20:54;9.27;;;2.08;;
30301;SDS011;17111;52.130;5.028;2023-03-31T11:25:51;8.18;;;2.38;;
30301;SDS011;17111;52.130;5.028;2023-03-31T11:31:25;8.57;;;1.98;;
30301;SDS011;17111;52.130;5.028;2023-03-31T11:36:43;8.93;;;2.10;;
30301;SDS011;17111;52.130;5.028;2023-03-31T11:39:48;7.50;;;1.97;;
30301;SDS011;17111;52.130;5.028;2023-03-31T11:42:48;8.52;;;2.47;;
30301;SDS011;17111;52.130;5.028;2023-03-31T11:45:27;5.93;;;1.73;;
30301;SDS011;17111;52.130;5.028;2023-03-31T11:47:59;8.63;;;2.15;;
30301;SDS011;17111;52.130;5.028;2023-03-31T11:50:34;11.63;;;2.65;;
30301;SDS011;17111;52.130;5.028;2023-03-31T11:53:06;8.60;;;2.35;;
30301;SDS011;17111;52.130;5.028;2023-03-31T11:55:44;6.60;;;1.90;;
30301;SDS011;17111;52.130;5.028;2023-03-31T11:58:23;8.75;;;2.05;;
30301;SDS011;17111;52.130;5.028;2023-03-31T12:00:59;8.23;;;1.77;;
30301;SDS011;17111;52.130;5.028;2023-03-31T12:03:51;5.20;;;1.65;;
30301;SDS011;17111;52.130;5.028;2023-03-31T12:06:30;6.88;;;1.88;;
30301;SDS011;17111;52.130;5.028;2023-03-31T12:09:03;7.53;;;1.95;;
30301;SDS011;17111;52.130;5.028;2023-03-31T12:15:05;7.90;;;1.98;;
30301;SDS011;17111;52.130;5.028;2023-03-31T12:17:38;6.82;;;1.92;;
30301;SDS011;17111;52.130;5.028;2023-03-31T12:20:13;7.85;;;2.10;;
30301;SDS011;17111;52.130;5.028;2023-03-31T12:22:49;5.60;;;1.70;;
30301;SDS011;17111;52.130;5.028;2023-03-31T12:25:18;6.05;;;1.63;;
30301;SDS011;17111;52.130;5.028;2023-03-31T12:27:51;6.15;;;1.55;;
30301;SDS011;17111;52.130;5.028;2023-03-31T12:33:00;4.70;;;1.48;;
30301;SDS011;17111;52.130;5.028;2023-03-31T12:47:15;4.80;;;1.88;;
30301;SDS011;17111;52.130;5.028;2023-03-31T12:50:02;6.22;;;1.83;;
30301;SDS011;17111;52.130;5.028;2023-03-31T12:55:48;5.38;;;1.80;;
30301;SDS011;17111;52.130;5.028;2023-03-31T13:06:02;7.65;;;1.83;;
30301;SDS011;17111;52.130;5.028;2023-03-31T13:08:47;6.15;;;1.90;;
30301;SDS011;17111;52.130;5.028;2023-03-31T13:11:38;5.25;;;1.80;;
30301;SDS011;17111;52.130;5.028;2023-03-31T13:14:21;3.88;;;1.50;;
30301;SDS011;17111;52.130;5.028;2023-03-31T13:16:49;7.90;;;1.90;;
30301;SDS011;17111;52.130;5.028;2023-03-31T13:19:33;5.97;;;2.08;;
30301;SDS011;17111;52.130;5.028;2023-03-31T13:22:02;13.15;;;4.85;;
30301;SDS011;17111;52.130;5.028;2023-03-31T13:24:30;16.65;;;8.38;;
30301;SDS011;17111;52.130;5.028;2023-03-31T13:26:58;22.85;;;11.25;;
30301;SDS011;17111;52.130;5.028;2023-03-31T13:29:58;27.58;;;13.98;;
30301;SDS011;17111;52.130;5.028;2023-03-31T13:32:25;26.10;;;13.90;;
30301;SDS011;17111;52.130;5.028;2023-03-31T13:35:03;23.27;;;12.35;;
30301;SDS011;17111;52.130;5.028;2023-03-31T13:37:55;28.77;;;13.98;;
30301;SDS011;17111;52.130;5.028;2023-03-31T13:52:09;29.25;;;15.18;;
30301;SDS011;17111;52.130;5.028;2023-03-31T14:01:19;22.98;;;13.07;;
30301;SDS011;17111;52.130;5.028;2023-03-31T14:06:34;24.95;;;11.88;;
30301;SDS011;17111;52.130;5.028;2023-03-31T14:09:06;21.75;;;11.57;;
30301;SDS011;17111;52.130;5.028;2023-03-31T14:11:35;20.55;;;12.13;;
30301;SDS011;17111;52.130;5.028;2023-03-31T14:14:09;23.13;;;10.77;;
30301;SDS011;17111;52.130;5.028;2023-03-31T14:16:47;20.38;;;10.43;;
30301;SDS011;17111;52.130;5.028;2023-03-31T14:19:32;20.95;;;10.05;;
30301;SDS011;17111;52.130;5.028;2023-03-31T14:25:03;19.27;;;9.57;;
30301;SDS011;17111;52.130;5.028;2023-03-31T14:34:10;22.55;;;10.27;;
30301;SDS011;17111;52.130;5.028;2023-03-31T14:36:58;25.23;;;10.77;;
30301;SDS011;17111;52.130;5.028;2023-03-31T14:39:26;21.00;;;10.50;;
30301;SDS011;17111;52.130;5.028;2023-03-31T14:42:34;22.60;;;9.82;;
30301;SDS011;17111;52.130;5.028;2023-03-31T14:44:54;17.48;;;8.60;;
30301;SDS011;17111;52.130;5.028;2023-03-31T14:47:27;17.23;;;9.80;;
30301;SDS011;17111;52.130;5.028;2023-03-31T14:50:07;19.33;;;9.15;;
30301;SDS011;17111;52.130;5.028;2023-03-31T14:52:38;19.38;;;10.52;;
30301;SDS011;17111;52.130;5.028;2023-03-31T14:55:12;16.83;;;9.35;;
30301;SDS011;17111;52.130;5.028;2023-03-31T14:57:43;24.23;;;12.18;;
30301;SDS011;17111;52.130;5.028;2023-03-31T15:00:13;21.90;;;11.15;;
30301;SDS011;17111;52.130;5.028;2023-03-31T15:02:44;23.52;;;12.98;;
30301;SDS011;17111;52.130;5.028;2023-03-31T15:05:30;18.98;;;10.25;;
30301;SDS011;17111;52.130;5.028;2023-03-31T15:08:06;22.88;;;12.07;;
30301;SDS011;17111;52.130;5.028;2023-03-31T15:10:43;23.65;;;12.82;;
30301;SDS011;17111;52.130;5.028;2023-03-31T15:13:23;21.90;;;11.20;;
30301;SDS011;17111;52.130;5.028;2023-03-31T15:15:58;17.15;;;9.85;;
30301;SDS011;17111;52.130;5.028;2023-03-31T15:18:25;22.65;;;11.10;;
30301;SDS011;17111;52.130;5.028;2023-03-31T15:20:52;19.70;;;11.10;;
30301;SDS011;17111;52.130;5.028;2023-03-31T15:26:00;27.45;;;10.50;;
30301;SDS011;17111;52.130;5.028;2023-03-31T15:28:36;15.70;;;8.82;;
30301;SDS011;17111;52.130;5.028;2023-03-31T15:31:09;16.90;;;8.63;;
30301;SDS011;17111;52.130;5.028;2023-03-31T15:33:36;16.48;;;9.85;;
30301;SDS011;17111;52.130;5.028;2023-03-31T15:36:26;16.77;;;9.23;;
30301;SDS011;17111;52.130;5.028;2023-03-31T15:38:55;15.02;;;8.45;;
30301;SDS011;17111;52.130;5.028;2023-03-31T15:41:27;16.85;;;8.27;;
30301;SDS011;17111;52.130;5.028;2023-03-31T15:44:06;13.77;;;7.78;;
30301;SDS011;17111;52.130;5.028;2023-03-31T15:46:59;14.50;;;7.60;;
30301;SDS011;17111;52.130;5.028;2023-03-31T15:49:27;14.40;;;7.72;;
30301;SDS011;17111;52.130;5.028;2023-03-31T15:51:54;11.07;;;6.38;;
30301;SDS011;17111;52.130;5.028;2023-03-31T15:54:28;11.95;;;6.05;;
30301;SDS011;17111;52.130;5.028;2023-03-31T15:57:01;11.65;;;6.03;;
30301;SDS011;17111;52.130;5.028;2023-03-31T15:59:30;9.55;;;5.55;;
30301;SDS011;17111;52.130;5.028;2023-03-31T16:02:22;9.60;;;5.32;;
30301;SDS011;17111;52.130;5.028;2023-03-31T16:04:54;9.57;;;5.35;;
30301;SDS011;17111;52.130;5.028;2023-03-31T16:07:25;11.18;;;6.10;;
30301;SDS011;17111;52.130;5.028;2023-03-31T16:09:59;9.68;;;5.10;;
30301;SDS011;17111;52.130;5.028;2023-03-31T16:15:09;8.77;;;4.88;;
30301;SDS011;17111;52.130;5.028;2023-03-31T16:17:40;8.07;;;4.45;;
30301;SDS011;17111;52.130;5.028;2023-03-31T16:20:17;9.55;;;4.45;;
30301;SDS011;17111;52.130;5.028;2023-03-31T16:22:48;7.72;;;4.28;;
30301;SDS011;17111;52.130;5.028;2023-03-31T16:25:18;10.80;;;5.00;;
30301;SDS011;17111;52.130;5.028;2023-03-31T16:27:49;8.77;;;4.60;;
30301;SDS011;17111;52.130;5.028;2023-03-31T16:30:20;7.30;;;4.18;;
30301;SDS011;17111;52.130;5.028;2023-03-31T16:32:58;8.10;;;4.20;;
30301;SDS011;17111;52.130;5.028;2023-03-31T16:35:33;9.95;;;4.55;;
30301;SDS011;17111;52.130;5.028;2023-03-31T16:38:05;8.05;;;4.20;;
30301;SDS011;17111;52.130;5.028;2023-03-31T16:40:36;8.52;;;4.25;;
30301;SDS011;17111;52.130;5.028;2023-03-31T16:43:15;8.13;;;3.90;;
30301;SDS011;17111;52.130;5.028;2023-03-31T16:45:48;8.55;;;4.47;;
30301;SDS011;17111;52.130;5.028;2023-03-31T16:48:19;6.78;;;4.30;;
30301;SDS011;17111;52.130;5.028;2023-03-31T16:50:49;6.50;;;3.10;;
30301;SDS011;17111;52.130;5.028;2023-03-31T16:53:18;5.13;;;3.20;;
30301;SDS011;17111;52.130;5.028;2023-03-31T16:55:48;5.63;;;3.17;;
30301;SDS011;17111;52.130;5.028;2023-03-31T16:58:15;5.10;;;3.15;;
30301;SDS011;17111;52.130;5.028;2023-03-31T17:00:43;8.13;;;4.45;;
30301;SDS011;17111;52.130;5.028;2023-03-31T17:03:11;9.45;;;3.90;;
30301;SDS011;17111;52.130;5.028;2023-03-31T17:05:40;8.90;;;3.90;;
30301;SDS011;17111;52.130;5.028;2023-03-31T17:08:09;7.50;;;4.07;;
30301;SDS011;17111;52.130;5.028;2023-03-31T17:10:37;6.47;;;3.60;;
30301;SDS011;17111;52.130;5.028;2023-03-31T17:13:06;6.38;;;3.28;;
30301;SDS011;17111;52.130;5.028;2023-03-31T17:15:34;5.45;;;2.78;;
30301;SDS011;17111;52.130;5.028;2023-03-31T17:18:05;4.97;;;3.40;;
30301;SDS011;17111;52.130;5.028;2023-03-31T17:20:32;6.63;;;3.45;;
30301;SDS011;17111;52.130;5.028;2023-03-31T17:22:59;6.97;;;3.67;;
30301;SDS011;17111;52.130;5.028;2023-03-31T17:25:26;5.53;;;3.55;;
30301;SDS011;17111;52.130;5.028;2023-03-31T17:27:53;7.38;;;3.50;;
30301;SDS011;17111;52.130;5.028;2023-03-31T17:30:21;5.38;;;3.20;;
30301;SDS011;17111;52.130;5.028;2023-03-31T17:32:48;5.10;;;2.90;;
30301;SDS011;17111;52.130;5.028;2023-03-31T17:35:17;5.70;;;3.53;;
30301;SDS011;17111;52.130;5.028;2023-03-31T17:37:47;5.68;;;3.10;;
30301;SDS011;17111;52.130;5.028;2023-03-31T17:40:24;4.07;;;2.78;;
30301;SDS011;17111;52.130;5.028;2023-03-31T17:42:53;6.47;;;2.65;;
30301;SDS011;17111;52.130;5.028;2023-03-31T17:45:19;6.05;;;2.80;;